createdAt,value
2019-05-09T00:02:38.651Z,2.17
2019-05-09T00:07:43.931Z,2.47
2019-05-09T00:12:48.489Z,3.43
2019-05-09T00:17:53.316Z,5.13
2019-05-09T00:22:57.615Z,4.70
2019-05-09T00:28:04.110Z,3.13
2019-05-09T00:33:08.557Z,5.07
2019-05-09T00:38:13.261Z,5.57
2019-05-09T00:43:17.665Z,2.60
2019-05-09T00:48:23.854Z,3.60
2019-05-09T00:53:28.141Z,3.30
2019-05-09T00:58:33.422Z,3.83
2019-05-09T01:03:37.798Z,3.77
2019-05-09T01:08:44.073Z,5.53
2019-05-09T01:13:47.985Z,3.07
2019-05-09T01:18:54.359Z,3.13
2019-05-09T01:23:58.380Z,3.10
2019-05-09T01:29:04.327Z,4.73
2019-05-09T01:34:10.570Z,3.67
2019-05-09T01:39:15.148Z,4.77
2019-05-09T01:44:19.790Z,3.40
2019-05-09T01:49:24.318Z,3.80
2019-05-09T01:54:28.438Z,3.80
2019-05-09T01:59:34.028Z,4.23
2019-05-09T02:04:38.473Z,5.70
2019-05-09T02:09:43.424Z,5.77
2019-05-09T02:15:08.053Z,4.23
2019-05-09T02:20:13.688Z,5.77
2019-05-09T02:25:18.201Z,3.60
2019-05-09T02:30:25.391Z,5.70
2019-05-09T02:35:32.142Z,3.70
2019-05-09T02:40:34.621Z,4.10
2019-05-09T02:45:40.245Z,6.03
2019-05-09T02:50:44.453Z,3.80
2019-05-09T02:55:49.755Z,4.53
2019-05-09T03:00:59.686Z,5.97
2019-05-09T03:06:03.836Z,4.57
2019-05-09T03:11:09.753Z,4.80
2019-05-09T03:16:18.777Z,5.00
2019-05-09T03:21:35.067Z,3.33
2019-05-09T03:26:41.297Z,3.20
2019-05-09T03:31:49.802Z,3.33
2019-05-09T03:36:52.637Z,4.30
2019-05-09T03:41:57.498Z,2.97
2019-05-09T03:47:21.906Z,3.43
2019-05-09T03:52:27.982Z,3.43
2019-05-09T03:57:34.097Z,4.75
2019-05-09T04:02:38.418Z,3.47
2019-05-09T04:07:43.366Z,2.93
2019-05-09T04:12:55.820Z,2.90
2019-05-09T04:17:53.811Z,6.03
2019-05-09T04:22:59.563Z,6.37
2019-05-09T04:28:04.902Z,4.47
2019-05-09T04:33:09.428Z,3.23
2019-05-09T04:38:13.365Z,5.50
2019-05-09T04:43:26.771Z,4.57
2019-05-09T04:48:37.616Z,4.97
2019-05-09T04:53:41.837Z,3.23
2019-05-09T04:58:48.024Z,3.60
2019-05-09T05:03:53.798Z,4.33
2019-05-09T05:08:58.556Z,3.87
2019-05-09T05:14:03.104Z,4.20
2019-05-09T05:19:07.580Z,4.90
2019-05-09T05:24:13.514Z,3.13
2019-05-09T05:29:17.821Z,4.97
2019-05-09T05:34:24.116Z,3.30
2019-05-09T05:39:28.432Z,2.37
2019-05-09T05:44:32.725Z,6.10
2019-05-09T05:49:38.522Z,3.92
2019-05-09T05:54:42.466Z,3.00
2019-05-09T05:59:48.226Z,3.27
2019-05-09T06:04:51.871Z,2.67
2019-05-09T06:09:57.579Z,4.00
2019-05-09T06:15:01.786Z,4.13
2019-05-09T06:20:08.672Z,2.53
2019-05-09T06:25:12.099Z,1.40
2019-05-09T06:30:17.670Z,4.53
2019-05-09T06:35:23.941Z,3.20
2019-05-09T06:40:28.741Z,1.60
2019-05-09T06:45:34.611Z,3.50
2019-05-09T06:50:39.098Z,4.40
2019-05-09T06:55:43.642Z,3.87
2019-05-09T07:01:01.489Z,5.57
2019-05-09T07:06:08.406Z,4.20
2019-05-09T07:11:13.143Z,3.90
2019-05-09T07:16:18.740Z,2.33
2019-05-09T07:21:23.351Z,2.83
2019-05-09T07:26:29.530Z,3.50
2019-05-09T07:31:41.765Z,2.43
2019-05-09T07:36:47.653Z,2.57
2019-05-09T07:41:52.182Z,3.93
2019-05-09T07:46:58.552Z,3.17
2019-05-09T07:52:06.809Z,3.87
2019-05-09T07:57:08.776Z,4.20
2019-05-09T08:02:13.024Z,4.87
2019-05-09T08:07:17.651Z,4.10
2019-05-09T08:12:21.897Z,3.23
2019-05-09T08:17:28.638Z,2.90
2019-05-09T08:22:40.885Z,3.47
2019-05-09T08:27:41.755Z,3.00
2019-05-09T08:32:48.232Z,3.00
2019-05-09T08:37:51.869Z,2.20
2019-05-09T08:42:58.529Z,2.40
2019-05-09T08:48:01.990Z,1.47
2019-05-09T08:53:08.022Z,2.13
2019-05-09T08:58:11.390Z,2.63
2019-05-09T09:03:15.510Z,2.30
2019-05-09T09:08:19.643Z,2.27
2019-05-09T09:13:24.166Z,2.77
2019-05-09T09:18:28.325Z,2.27
2019-05-09T09:23:42.814Z,0.90
2019-05-09T09:28:38.279Z,1.20
2019-05-09T09:33:42.479Z,1.00
2019-05-09T09:38:48.058Z,1.20
2019-05-09T09:43:52.493Z,0.80
2019-05-09T09:48:58.857Z,1.97
2019-05-09T09:54:02.941Z,1.47
2019-05-09T09:59:13.355Z,2.43
2019-05-09T10:04:23.737Z,1.47
2019-05-09T10:09:24.005Z,1.37
2019-05-09T10:14:42.087Z,1.13
2019-05-09T10:19:53.979Z,1.63
2019-05-09T10:24:58.777Z,1.63
2019-05-09T10:30:04.758Z,1.57
2019-05-09T10:35:09.205Z,1.00
2019-05-09T10:40:15.014Z,0.60
2019-05-09T10:45:40.690Z,1.07
2019-05-09T10:50:45.647Z,1.70
2019-05-09T10:55:49.518Z,0.70
2019-05-09T11:00:54.212Z,1.37
2019-05-09T11:05:58.087Z,0.97
2019-05-09T11:11:05.885Z,0.83
2019-05-09T11:16:08.496Z,1.20
2019-05-09T11:21:12.751Z,0.60
2019-05-09T11:26:17.897Z,1.17
2019-05-09T11:31:23.877Z,2.43
2019-05-09T11:36:28.131Z,1.03
2019-05-09T11:41:32.262Z,1.37
2019-05-09T11:46:38.188Z,0.50
2019-05-09T11:51:41.675Z,0.50
2019-05-09T11:56:48.035Z,0.90
2019-05-09T12:01:51.319Z,0.57
2019-05-09T12:06:57.559Z,0.77
2019-05-09T12:12:01.450Z,0.90
2019-05-09T12:17:08.170Z,0.60
2019-05-09T12:22:10.990Z,0.70
2019-05-09T12:27:14.897Z,0.50
2019-05-09T12:32:19.438Z,1.10
2019-05-09T12:37:23.672Z,0.70
2019-05-09T12:42:28.783Z,1.40
2019-05-09T12:47:33.260Z,0.60
2019-05-09T12:52:39.205Z,0.97
2019-05-09T12:57:43.372Z,0.60
2019-05-09T13:02:47.229Z,0.70
2019-05-09T13:07:51.435Z,0.87
2019-05-09T13:12:55.866Z,0.90
2019-05-09T13:17:59.809Z,0.60
2019-05-09T13:23:08.709Z,0.30
2019-05-09T13:28:12.077Z,0.50
2019-05-09T13:33:18.791Z,1.03
2019-05-09T13:38:21.919Z,0.70
2019-05-09T13:43:28.112Z,0.60
2019-05-09T13:48:57.217Z,0.40
2019-05-09T13:53:38.804Z,1.50
2019-05-09T13:58:43.108Z,0.50
2019-05-09T14:03:49.153Z,0.60
2019-05-09T14:08:53.922Z,0.65
2019-05-09T14:14:13.354Z,5.17
2019-05-09T14:19:35.921Z,1.40
2019-05-09T14:24:23.235Z,0.73
2019-05-09T14:29:31.536Z,0.60
2019-05-09T14:34:33.526Z,0.40
2019-05-09T14:39:43.047Z,1.22
2019-05-09T14:44:44.356Z,0.77
2019-05-09T14:49:49.870Z,1.53
2019-05-09T14:54:53.870Z,2.30
2019-05-09T14:59:58.453Z,1.47
2019-05-09T15:05:03.728Z,2.27
2019-05-09T15:10:09.129Z,1.10
2019-05-09T15:15:13.173Z,1.07
2019-05-09T15:20:17.974Z,1.40
2019-05-09T15:25:23.403Z,1.03
2019-05-09T15:30:28.701Z,1.97
2019-05-09T15:35:33.196Z,1.00
2019-05-09T15:40:38.724Z,1.43
2019-05-09T15:45:44.983Z,0.90
2019-05-09T15:50:49.494Z,1.17
2019-05-09T15:55:54.112Z,0.90
2019-05-09T16:00:59.006Z,0.77
2019-05-09T16:06:03.024Z,1.00
2019-05-09T16:11:08.729Z,0.97
2019-05-09T16:16:13.208Z,0.90
2019-05-09T16:21:17.394Z,1.57
2019-05-09T16:26:21.686Z,0.80
2019-05-09T16:31:27.933Z,0.80
2019-05-09T16:36:31.819Z,1.03
2019-05-09T16:41:39.215Z,0.80
2019-05-09T16:46:42.314Z,0.80
2019-05-09T16:51:48.617Z,1.40
2019-05-09T16:56:52.362Z,1.00
2019-05-09T17:01:57.874Z,1.30
2019-05-09T17:07:02.242Z,1.27
2019-05-09T17:12:08.338Z,1.23
2019-05-09T17:17:12.042Z,1.80
2019-05-09T17:22:17.545Z,1.67
2019-05-09T17:27:21.973Z,1.70
2019-05-09T17:32:28.338Z,1.43
2019-05-09T17:37:32.483Z,1.60
2019-05-09T17:42:38.147Z,2.10
2019-05-09T17:47:42.264Z,1.60
2019-05-09T17:52:48.078Z,1.97
2019-05-09T17:57:52.510Z,2.33
2019-05-09T18:02:57.975Z,1.40
2019-05-09T18:08:02.518Z,1.63
2019-05-09T18:13:08.138Z,2.90
2019-05-09T18:18:12.835Z,2.10
2019-05-09T18:23:17.688Z,1.77
2019-05-09T18:28:22.652Z,2.30
2019-05-09T18:33:34.494Z,2.70
2019-05-09T18:38:40.448Z,2.53
2019-05-09T18:43:44.706Z,3.27
2019-05-09T18:48:50.013Z,3.97
2019-05-09T18:53:54.249Z,3.30
2019-05-09T18:58:58.381Z,1.90
2019-05-09T19:04:02.819Z,2.73
2019-05-09T19:09:07.678Z,2.70
2019-05-09T19:14:13.595Z,1.60
2019-05-09T19:19:19.181Z,1.67
2019-05-09T19:24:23.383Z,1.93
2019-05-09T19:29:27.615Z,2.10
2019-05-09T19:34:31.816Z,3.57
2019-05-09T19:39:36.362Z,2.57
2019-05-09T19:44:40.610Z,2.50
2019-05-09T19:49:44.816Z,1.97
2019-05-09T19:54:50.209Z,3.00
2019-05-09T19:59:55.566Z,3.77
2019-05-09T20:04:59.759Z,2.53
2019-05-09T20:10:10.874Z,1.93
2019-05-09T20:15:16.467Z,4.40
2019-05-09T20:20:20.669Z,2.07
2019-05-09T20:25:24.979Z,2.90
2019-05-09T20:30:29.579Z,2.50
2019-05-09T20:35:34.123Z,3.03
2019-05-09T20:40:39.179Z,3.70
2019-05-09T20:45:43.315Z,4.63
2019-05-09T20:50:47.674Z,2.77
2019-05-09T20:55:52.390Z,3.77
2019-05-09T21:00:57.451Z,4.13
2019-05-09T21:06:01.550Z,2.80
2019-05-09T21:11:05.594Z,4.23
2019-05-09T21:16:09.999Z,2.83
2019-05-09T21:21:14.413Z,3.57
2019-05-09T21:26:18.471Z,2.33
2019-05-09T21:31:22.765Z,2.70
2019-05-09T21:36:26.964Z,3.40
2019-05-09T21:41:32.455Z,4.20
2019-05-09T21:46:37.026Z,4.67
2019-05-09T21:51:41.308Z,2.17
2019-05-09T21:56:45.593Z,3.07
2019-05-09T22:01:49.950Z,3.30
2019-05-09T22:06:54.495Z,4.43
2019-05-09T22:11:59.208Z,2.60
2019-05-09T22:17:07.744Z,2.63
2019-05-09T22:22:11.933Z,4.03
2019-05-09T22:27:16.260Z,3.53
2019-05-09T22:32:22.261Z,2.77
2019-05-09T22:37:26.726Z,4.97
2019-05-09T22:42:31.054Z,2.40
2019-05-09T22:47:35.358Z,4.60
2019-05-09T22:52:39.666Z,4.37
2019-05-09T22:57:43.618Z,4.07
2019-05-09T23:02:48.150Z,4.43
2019-05-09T23:07:52.402Z,4.87
2019-05-09T23:12:56.946Z,3.37
2019-05-09T23:18:01.235Z,3.07
2019-05-09T23:23:24.382Z,2.77
2019-05-09T23:28:28.721Z,3.60
2019-05-09T23:33:34.658Z,3.17
2019-05-09T23:38:57.074Z,3.50
2019-05-09T23:44:01.290Z,4.10
2019-05-09T23:49:05.482Z,4.70
2019-05-09T23:54:08.846Z,4.50
2019-05-09T23:59:30.627Z,4.57
